createdAt,value
2018-06-09T00:00:57.742Z,90.83
2018-06-09T00:03:25.259Z,92.90
2018-06-09T00:05:52.821Z,94.70
2018-06-09T00:08:20.327Z,96.57
2018-06-09T00:10:47.838Z,97.87
2018-06-09T00:13:15.334Z,94.73
2018-06-09T00:15:42.834Z,92.63
2018-06-09T00:18:10.352Z,88.07
2018-06-09T00:20:37.856Z,85.27
2018-06-09T00:23:05.389Z,80.87
2018-06-09T00:25:32.905Z,78.27
2018-06-09T00:28:00.426Z,82.63
2018-06-09T00:30:27.950Z,74.30
2018-06-09T00:32:55.473Z,78.13
2018-06-09T00:35:23.008Z,82.00
2018-06-09T00:37:51.397Z,83.77
2018-06-09T00:40:18.896Z,87.40
2018-06-09T00:42:46.458Z,78.77
2018-06-09T00:45:13.954Z,72.47
2018-06-09T00:47:41.529Z,69.03
2018-06-09T00:50:09.077Z,65.53
2018-06-09T00:52:36.636Z,63.10
2018-06-09T00:55:04.294Z,51.60
2018-06-09T00:57:31.877Z,53.07
2018-06-09T00:59:59.397Z,48.67
2018-06-09T01:02:26.931Z,48.37
2018-06-09T01:04:54.420Z,44.03
2018-06-09T01:07:21.933Z,40.03
2018-06-09T01:09:50.434Z,36.37
2018-06-09T01:12:17.861Z,40.17
2018-06-09T01:14:51.981Z,38.07
2018-06-09T01:17:19.510Z,36.70
2018-06-09T01:19:47.048Z,34.33
2018-06-09T01:22:14.586Z,34.40
2018-06-09T01:24:42.089Z,35.63
2018-06-09T01:27:09.728Z,32.80
2018-06-09T01:29:37.263Z,33.10
2018-06-09T01:32:04.797Z,33.27
2018-06-09T01:34:32.333Z,33.53
2018-06-09T01:36:59.856Z,30.17
2018-06-09T01:39:27.389Z,32.57
2018-06-09T01:41:54.892Z,31.13
2018-06-09T01:44:22.524Z,29.33
2018-06-09T01:46:50.036Z,29.77
2018-06-09T01:49:17.646Z,26.73
2018-06-09T01:51:45.177Z,25.93
2018-06-09T01:54:12.701Z,24.83
2018-06-09T01:56:40.212Z,25.20
2018-06-09T01:59:07.733Z,26.73
2018-06-09T02:01:35.231Z,27.27
2018-06-09T02:04:02.748Z,24.73
2018-06-09T02:06:30.263Z,24.10
2018-06-09T02:08:57.772Z,26.13
2018-06-09T02:11:25.256Z,23.70
2018-06-09T02:13:52.773Z,25.67
2018-06-09T02:16:20.279Z,24.67
2018-06-09T02:18:47.807Z,25.37
2018-06-09T02:21:15.301Z,25.50
2018-06-09T02:23:42.830Z,24.90
2018-06-09T02:26:10.302Z,23.73
2018-06-09T02:28:37.821Z,25.60
2018-06-09T02:31:05.394Z,25.80
2018-06-09T02:33:35.852Z,22.43
2018-06-09T02:36:03.402Z,24.40
2018-06-09T02:38:30.911Z,23.07
2018-06-09T02:40:58.458Z,24.03
2018-06-09T02:43:25.960Z,20.57
2018-06-09T02:45:53.481Z,22.97
2018-06-09T02:48:20.989Z,24.13
2018-06-09T02:50:48.532Z,27.83
2018-06-09T02:53:16.012Z,24.70
2018-06-09T02:55:43.567Z,24.13
2018-06-09T02:58:11.072Z,25.20
2018-06-09T03:00:38.610Z,23.20
2018-06-09T03:03:06.125Z,22.47
2018-06-09T03:05:33.674Z,23.67
2018-06-09T03:08:01.190Z,22.63
2018-06-09T03:10:28.719Z,24.30
2018-06-09T03:12:56.226Z,21.50
2018-06-09T03:15:23.731Z,25.50
2018-06-09T03:17:51.213Z,27.03
2018-06-09T03:20:18.778Z,22.57
2018-06-09T03:22:46.283Z,22.53
2018-06-09T03:25:13.802Z,21.17
2018-06-09T03:27:41.313Z,25.60
2018-06-09T03:30:08.861Z,22.60
2018-06-09T03:32:36.398Z,22.27
2018-06-09T03:35:04.039Z,21.60
2018-06-09T03:37:31.537Z,26.23
2018-06-09T03:39:59.030Z,21.70
2018-06-09T03:42:26.585Z,23.43
2018-06-09T03:44:54.380Z,24.90
2018-06-09T03:47:21.911Z,21.97
2018-06-09T03:49:49.413Z,22.97
2018-06-09T03:52:17.175Z,23.23
2018-06-09T03:54:44.691Z,21.77
2018-06-09T03:57:12.204Z,23.50
2018-06-09T03:59:39.710Z,21.93
2018-06-09T04:02:07.238Z,21.87
2018-06-09T04:04:34.765Z,21.97
2018-06-09T04:07:02.300Z,20.27
2018-06-09T04:09:29.798Z,22.27
2018-06-09T04:11:57.340Z,22.80
2018-06-09T04:14:24.764Z,22.37
2018-06-09T04:16:52.294Z,22.10
2018-06-09T04:19:19.790Z,20.50
2018-06-09T04:21:47.354Z,22.93
2018-06-09T04:24:14.860Z,32.30
2018-06-09T04:26:42.386Z,19.67
2018-06-09T04:29:09.885Z,22.57
2018-06-09T04:31:37.408Z,20.43
2018-06-09T04:34:05.057Z,20.53
2018-06-09T04:36:32.529Z,19.90
2018-06-09T04:39:00.052Z,18.83
2018-06-09T04:41:27.577Z,18.80
2018-06-09T04:43:55.097Z,21.63
2018-06-09T04:46:22.592Z,17.27
2018-06-09T04:48:50.124Z,19.97
2018-06-09T04:51:17.633Z,18.50
2018-06-09T04:53:45.178Z,19.13
2018-06-09T04:56:12.695Z,18.97
2018-06-09T04:58:40.270Z,19.17
2018-06-09T05:01:07.765Z,18.87
2018-06-09T05:03:35.297Z,20.60
2018-06-09T05:06:02.817Z,19.13
2018-06-09T05:08:30.374Z,18.30
2018-06-09T05:10:57.824Z,18.27
2018-06-09T05:13:25.265Z,20.33
2018-06-09T05:15:52.770Z,18.37
2018-06-09T05:18:20.329Z,19.10
2018-06-09T05:20:47.858Z,17.53
2018-06-09T05:23:22.072Z,18.57
2018-06-09T05:25:49.574Z,17.43
2018-06-09T05:28:17.095Z,17.73
2018-06-09T05:30:44.603Z,18.30
2018-06-09T05:33:12.144Z,17.67
2018-06-09T05:35:39.676Z,17.07
2018-06-09T05:38:07.224Z,18.47
2018-06-09T05:40:34.678Z,18.73
2018-06-09T05:43:02.369Z,17.87
2018-06-09T05:45:29.926Z,22.97
2018-06-09T05:47:57.478Z,18.20
2018-06-09T05:50:25.076Z,17.37
2018-06-09T05:52:52.568Z,19.40
2018-06-09T05:55:20.107Z,19.47
2018-06-09T05:57:47.698Z,17.20
2018-06-09T06:00:15.309Z,18.17
2018-06-09T06:02:42.825Z,18.57
2018-06-09T06:05:10.427Z,17.37
2018-06-09T06:07:37.991Z,17.07
2018-06-09T06:10:05.653Z,18.77
2018-06-09T06:12:33.245Z,18.13
2018-06-09T06:15:00.785Z,17.67
2018-06-09T06:17:28.321Z,17.33
2018-06-09T06:19:55.937Z,17.63
2018-06-09T06:22:23.553Z,17.73
2018-06-09T06:24:51.157Z,17.53
2018-06-09T06:27:18.712Z,20.30
2018-06-09T06:29:46.293Z,17.07
2018-06-09T06:32:13.813Z,18.30
2018-06-09T06:34:42.551Z,17.80
2018-06-09T06:37:10.131Z,17.90
2018-06-09T06:39:37.695Z,16.87
2018-06-09T06:42:05.304Z,18.30
2018-06-09T06:44:32.817Z,19.27
2018-06-09T06:47:00.441Z,18.57
2018-06-09T06:49:28.018Z,18.57
2018-06-09T06:51:55.614Z,19.20
2018-06-09T06:54:23.120Z,18.30
2018-06-09T06:56:50.673Z,20.97
2018-06-09T06:59:18.205Z,19.43
2018-06-09T07:01:45.713Z,25.30
2018-06-09T07:04:13.214Z,19.47
2018-06-09T07:06:40.741Z,19.50
2018-06-09T07:09:08.237Z,22.43
2018-06-09T07:11:36.005Z,24.10
2018-06-09T07:14:03.591Z,22.23
2018-06-09T07:16:31.137Z,22.80
2018-06-09T07:18:58.685Z,22.87
2018-06-09T07:21:26.181Z,25.70
2018-06-09T07:23:53.794Z,22.83
2018-06-09T07:26:21.300Z,22.83
2018-06-09T07:28:48.842Z,23.70
2018-06-09T07:31:16.389Z,22.67
2018-06-09T07:33:43.938Z,22.73
2018-06-09T07:36:11.578Z,20.47
2018-06-09T07:38:39.132Z,21.50
2018-06-09T07:41:06.729Z,20.50
2018-06-09T07:43:34.352Z,21.60
2018-06-09T07:46:01.888Z,20.70
2018-06-09T07:48:29.413Z,22.83
2018-06-09T07:50:56.924Z,23.53
2018-06-09T07:53:24.512Z,24.03
2018-06-09T07:55:52.079Z,23.40
2018-06-09T07:58:19.735Z,22.87
2018-06-09T08:00:47.347Z,21.17
2018-06-09T08:03:14.881Z,21.33
2018-06-09T08:05:42.417Z,20.03
2018-06-09T08:08:10.614Z,20.40
2018-06-09T08:10:38.228Z,21.23
2018-06-09T08:13:05.832Z,20.60
2018-06-09T08:15:33.364Z,21.00
2018-06-09T08:18:00.905Z,19.67
2018-06-09T08:20:28.433Z,21.17
2018-06-09T08:22:55.953Z,19.23
2018-06-09T08:25:23.553Z,20.37
2018-06-09T08:27:51.065Z,19.93
2018-06-09T08:30:18.592Z,21.67
2018-06-09T08:32:46.105Z,18.33
2018-06-09T08:35:13.701Z,18.33
2018-06-09T08:37:41.242Z,18.40
2018-06-09T08:40:08.760Z,19.90
2018-06-09T08:42:36.285Z,20.80
2018-06-09T08:45:03.828Z,19.80
2018-06-09T08:47:31.380Z,18.30
2018-06-09T08:49:58.917Z,19.47
2018-06-09T08:52:26.474Z,20.00
2018-06-09T08:54:54.082Z,21.00
2018-06-09T08:57:21.640Z,18.43
2018-06-09T08:59:49.102Z,18.90
2018-06-09T09:02:16.665Z,21.17
2018-06-09T09:04:44.186Z,20.53
2018-06-09T09:07:11.915Z,20.30
2018-06-09T09:09:39.628Z,19.37
2018-06-09T09:12:07.254Z,21.43
2018-06-09T09:14:34.829Z,18.67
2018-06-09T09:17:02.391Z,20.07
2018-06-09T09:19:29.905Z,19.30
2018-06-09T09:21:57.475Z,21.10
2018-06-09T09:24:25.125Z,19.87
2018-06-09T09:26:52.628Z,20.10
2018-06-09T09:29:20.144Z,21.40
2018-06-09T09:31:47.852Z,20.00
2018-06-09T09:34:15.538Z,19.40
2018-06-09T09:36:43.127Z,18.87
2018-06-09T09:39:13.614Z,19.83
2018-06-09T09:41:41.364Z,20.93
2018-06-09T09:44:08.901Z,18.33
2018-06-09T09:46:36.418Z,18.83
2018-06-09T09:49:04.070Z,19.67
2018-06-09T09:51:31.703Z,20.57
2018-06-09T09:53:59.324Z,22.17
2018-06-09T09:56:26.830Z,19.30
2018-06-09T09:58:54.373Z,20.23
2018-06-09T10:01:22.032Z,19.60
2018-06-09T10:03:49.717Z,19.00
2018-06-09T10:06:17.228Z,18.20
2018-06-09T10:08:44.890Z,19.57
2018-06-09T10:11:12.428Z,21.27
2018-06-09T10:13:40.010Z,23.03
2018-06-09T10:16:07.679Z,22.10
2018-06-09T10:18:35.310Z,20.40
2018-06-09T10:21:02.917Z,22.37
2018-06-09T10:23:31.097Z,21.60
2018-06-09T10:25:58.628Z,23.53
2018-06-09T10:28:26.209Z,21.97
2018-06-09T10:30:53.746Z,21.13
2018-06-09T10:33:21.304Z,21.00
2018-06-09T10:35:48.864Z,21.30
2018-06-09T10:38:23.006Z,21.57
2018-06-09T10:40:50.534Z,21.17
2018-06-09T10:43:18.098Z,21.47
2018-06-09T10:45:45.664Z,20.17
2018-06-09T10:48:13.831Z,21.20
2018-06-09T10:50:41.392Z,20.67
2018-06-09T10:53:08.920Z,23.60
2018-06-09T10:55:36.435Z,21.20
2018-06-09T10:58:04.116Z,21.83
2018-06-09T11:00:31.757Z,23.37
2018-06-09T11:02:59.309Z,21.47
2018-06-09T11:05:26.910Z,21.80
2018-06-09T11:07:54.433Z,22.27
2018-06-09T11:10:21.958Z,25.60
2018-06-09T11:12:49.468Z,22.37
2018-06-09T11:15:17.157Z,21.67
2018-06-09T11:17:45.845Z,24.27
2018-06-09T11:20:13.539Z,25.57
2018-06-09T11:22:41.079Z,23.90
2018-06-09T11:25:08.593Z,23.43
2018-06-09T11:27:36.121Z,21.60
2018-06-09T11:30:03.819Z,22.97
2018-06-09T11:32:31.626Z,24.23
2018-06-09T11:34:59.385Z,21.87
2018-06-09T11:37:26.928Z,25.67
2018-06-09T11:39:54.523Z,24.40
2018-06-09T11:42:25.117Z,24.30
2018-06-09T11:44:52.718Z,24.80
2018-06-09T11:47:20.755Z,24.10
2018-06-09T11:49:48.285Z,25.27
2018-06-09T11:52:16.541Z,24.57
2018-06-09T11:54:44.132Z,23.33
2018-06-09T11:57:11.643Z,25.83
2018-06-09T11:59:39.173Z,24.40
2018-06-09T12:02:06.707Z,23.87
2018-06-09T12:04:34.229Z,23.13
2018-06-09T12:07:01.802Z,23.87
2018-06-09T12:09:29.308Z,27.43
2018-06-09T12:11:56.845Z,26.80
2018-06-09T12:14:24.397Z,24.90
2018-06-09T12:16:51.948Z,28.10
2018-06-09T12:19:19.500Z,24.33
2018-06-09T12:21:47.083Z,27.57
2018-06-09T12:24:14.606Z,27.07
2018-06-09T12:26:42.153Z,25.40
2018-06-09T12:29:09.727Z,27.27
2018-06-09T12:31:37.277Z,26.77
2018-06-09T12:34:04.846Z,25.20
2018-06-09T12:36:32.386Z,24.33
2018-06-09T12:39:00.034Z,28.30
2018-06-09T12:41:27.590Z,26.50
2018-06-09T12:43:55.103Z,25.23
2018-06-09T12:46:23.328Z,26.80
2018-06-09T12:48:51.858Z,27.53
2018-06-09T12:51:19.394Z,25.40
2018-06-09T12:53:46.917Z,27.10
2018-06-09T12:56:14.423Z,25.53
2018-06-09T12:58:42.351Z,26.57
2018-06-09T13:01:09.868Z,27.67
2018-06-09T13:03:37.482Z,26.50
2018-06-09T13:06:05.060Z,27.73
2018-06-09T13:08:32.653Z,27.40
2018-06-09T13:11:00.200Z,24.80
2018-06-09T13:13:27.769Z,26.20
2018-06-09T13:15:55.293Z,26.27
2018-06-09T13:18:23.194Z,25.60
2018-06-09T13:20:50.714Z,24.17
2018-06-09T13:23:19.146Z,26.67
2018-06-09T13:25:46.651Z,26.07
2018-06-09T13:28:14.235Z,25.23
2018-06-09T13:30:41.769Z,28.00
2018-06-09T13:33:09.380Z,26.20
2018-06-09T13:35:36.896Z,27.90
2018-06-09T13:38:04.343Z,26.43
2018-06-09T13:40:31.813Z,27.73
2018-06-09T13:42:59.294Z,26.53
2018-06-09T13:45:26.816Z,25.60
2018-06-09T13:47:54.342Z,26.10
2018-06-09T13:50:21.865Z,26.50
2018-06-09T13:52:49.365Z,25.73
2018-06-09T13:55:16.900Z,25.23
2018-06-09T13:57:44.409Z,26.77
2018-06-09T14:00:12.180Z,25.70
2018-06-09T14:02:40.586Z,26.07
2018-06-09T14:05:08.185Z,27.63
2018-06-09T14:07:37.717Z,25.97
2018-06-09T14:10:05.245Z,30.00
2018-06-09T14:12:32.765Z,28.90
2018-06-09T14:15:00.297Z,27.20
2018-06-09T14:17:27.966Z,29.20
2018-06-09T14:19:55.503Z,28.90
2018-06-09T14:22:23.033Z,26.67
2018-06-09T14:24:50.628Z,28.07
2018-06-09T14:27:18.032Z,26.27
2018-06-09T14:29:45.654Z,25.67
2018-06-09T14:32:13.177Z,26.90
2018-06-09T14:34:40.695Z,27.63
2018-06-09T14:37:08.477Z,27.40
2018-06-09T14:39:36.013Z,24.77
2018-06-09T14:42:03.641Z,25.77
2018-06-09T14:44:31.172Z,26.40
2018-06-09T14:46:58.860Z,30.50
2018-06-09T14:49:26.420Z,29.03
2018-06-09T14:51:53.893Z,24.70
2018-06-09T14:54:21.403Z,25.93
2018-06-09T14:56:48.926Z,29.77
2018-06-09T14:59:16.613Z,28.70
2018-06-09T15:01:44.174Z,28.53
2018-06-09T15:04:11.702Z,27.60
2018-06-09T15:06:39.229Z,27.23
2018-06-09T15:09:07.973Z,24.90
2018-06-09T15:11:35.573Z,23.67
2018-06-09T15:14:03.156Z,24.93
2018-06-09T15:16:30.914Z,24.30
2018-06-09T15:18:58.444Z,24.47
2018-06-09T15:21:26.039Z,25.07
2018-06-09T15:23:53.573Z,23.67
2018-06-09T15:26:21.093Z,23.63
2018-06-09T15:28:48.609Z,25.77
2018-06-09T15:31:16.178Z,22.63
2018-06-09T15:33:43.764Z,21.13
2018-06-09T15:36:11.373Z,21.97
2018-06-09T15:38:38.784Z,23.13
2018-06-09T15:41:06.292Z,20.20
2018-06-09T15:43:33.932Z,22.30
2018-06-09T15:46:01.480Z,22.17
2018-06-09T15:48:29.030Z,20.93
2018-06-09T15:50:56.873Z,19.73
2018-06-09T15:53:24.447Z,19.90
2018-06-09T15:55:52.593Z,19.30
2018-06-09T15:58:20.255Z,20.30
2018-06-09T16:00:47.815Z,19.90
2018-06-09T16:03:15.347Z,18.90
2018-06-09T16:05:42.931Z,19.30
2018-06-09T16:08:10.516Z,18.77
2018-06-09T16:10:38.108Z,18.07
2018-06-09T16:13:05.727Z,18.13
2018-06-09T16:15:33.270Z,19.63
2018-06-09T16:18:00.858Z,19.23
2018-06-09T16:20:28.396Z,20.80
2018-06-09T16:22:55.948Z,20.87
2018-06-09T16:25:23.541Z,21.43
2018-06-09T16:27:51.070Z,20.47
2018-06-09T16:30:18.580Z,18.40
2018-06-09T16:32:46.155Z,18.33
2018-06-09T16:35:13.632Z,19.57
2018-06-09T16:37:41.199Z,18.27
2018-06-09T16:40:08.753Z,17.87
2018-06-09T16:42:36.309Z,20.87
2018-06-09T16:45:03.974Z,21.83
2018-06-09T16:47:31.584Z,20.43
2018-06-09T16:49:59.112Z,22.47
2018-06-09T16:52:26.664Z,20.60
2018-06-09T16:54:54.176Z,19.63
2018-06-09T16:57:21.674Z,20.47
2018-06-09T16:59:49.242Z,20.23
2018-06-09T17:02:16.783Z,21.40
2018-06-09T17:04:44.284Z,21.80
2018-06-09T17:07:11.809Z,22.60
2018-06-09T17:09:39.336Z,21.40
2018-06-09T17:12:06.982Z,21.77
2018-06-09T17:14:34.555Z,20.83
2018-06-09T17:17:02.070Z,24.93
2018-06-09T17:19:29.614Z,28.67
2018-06-09T17:21:57.248Z,24.00
2018-06-09T17:24:28.912Z,25.53
2018-06-09T17:26:56.722Z,24.90
2018-06-09T17:29:24.300Z,23.63
2018-06-09T17:31:51.874Z,23.63
2018-06-09T17:34:19.389Z,23.70
2018-06-09T17:37:08.032Z,24.63
2018-06-09T17:39:36.097Z,24.33
2018-06-09T17:42:03.732Z,26.60
2018-06-09T17:44:31.236Z,28.20
2018-06-09T17:46:58.813Z,27.10
2018-06-09T17:49:26.322Z,26.13
2018-06-09T17:51:53.853Z,27.10
2018-06-09T17:54:21.500Z,25.23
2018-06-09T17:56:49.013Z,28.87
2018-06-09T17:59:16.578Z,29.20
2018-06-09T18:01:44.173Z,27.67
2018-06-09T18:04:11.718Z,27.10
2018-06-09T18:06:39.286Z,27.43
2018-06-09T18:09:07.685Z,26.97
2018-06-09T18:11:35.517Z,27.13
2018-06-09T18:14:03.157Z,28.23
2018-06-09T18:16:30.688Z,29.50
2018-06-09T18:18:58.228Z,28.43
2018-06-09T18:21:25.777Z,25.83
2018-06-09T18:23:53.325Z,26.27
2018-06-09T18:26:20.957Z,26.43
2018-06-09T18:28:48.656Z,27.67
2018-06-09T18:31:16.081Z,26.63
2018-06-09T18:33:43.694Z,29.13
2018-06-09T18:36:11.184Z,28.67
2018-06-09T18:38:38.741Z,29.17
2018-06-09T18:41:06.334Z,27.97
2018-06-09T18:43:33.792Z,27.67
2018-06-09T18:46:01.297Z,29.97
2018-06-09T18:48:28.814Z,29.70
2018-06-09T18:50:56.346Z,29.80
2018-06-09T18:53:23.873Z,30.10
2018-06-09T18:55:52.057Z,31.10
2018-06-09T18:58:19.618Z,29.80
2018-06-09T19:00:47.125Z,31.57
2018-06-09T19:03:14.564Z,29.40
2018-06-09T19:05:42.096Z,32.20
2018-06-09T19:08:09.633Z,31.80
2018-06-09T19:10:37.153Z,31.80
2018-06-09T19:13:04.771Z,31.30
2018-06-09T19:15:32.323Z,32.03
2018-06-09T19:17:59.875Z,32.97
2018-06-09T19:20:27.446Z,32.43
2018-06-09T19:22:54.964Z,31.60
2018-06-09T19:25:22.488Z,30.03
2018-06-09T19:27:50.006Z,33.07
2018-06-09T19:32:51.785Z,31.10
2018-06-09T19:35:19.394Z,32.27
2018-06-09T19:37:46.937Z,32.23
2018-06-09T19:40:14.468Z,34.40
2018-06-09T19:42:42.021Z,32.77
2018-06-09T19:45:09.529Z,31.63
2018-06-09T19:47:37.057Z,32.17
2018-06-09T19:50:04.573Z,30.40
2018-06-09T19:52:32.078Z,30.57
2018-06-09T19:54:59.600Z,33.13
2018-06-09T19:57:27.148Z,30.33
2018-06-09T19:59:54.678Z,34.67
2018-06-09T20:02:22.202Z,33.50
2018-06-09T20:04:49.716Z,34.47
2018-06-09T20:07:17.248Z,33.30
2018-06-09T20:09:45.601Z,34.70
2018-06-09T20:12:13.117Z,37.30
2018-06-09T20:14:40.656Z,37.40
2018-06-09T20:17:08.164Z,34.90
2018-06-09T20:19:35.694Z,35.43
2018-06-09T20:22:03.184Z,34.97
2018-06-09T20:24:30.710Z,35.13
2018-06-09T20:26:58.346Z,35.97
2018-06-09T20:29:25.852Z,35.43
2018-06-09T20:31:53.381Z,36.67
2018-06-09T20:34:20.981Z,38.87
2018-06-09T20:36:48.477Z,38.07
2018-06-09T20:39:15.984Z,39.67
2018-06-09T20:41:43.577Z,38.70
2018-06-09T20:44:11.137Z,38.20
2018-06-09T20:46:38.713Z,40.33
2018-06-09T20:49:06.240Z,37.47
2018-06-09T20:51:33.862Z,40.20
2018-06-09T20:54:02.346Z,41.73
2018-06-09T20:56:29.889Z,41.03
2018-06-09T20:58:57.405Z,38.93
2018-06-09T21:01:24.960Z,43.27
2018-06-09T21:03:52.502Z,39.87
2018-06-09T21:06:20.035Z,41.70
2018-06-09T21:08:47.587Z,40.03
2018-06-09T21:11:15.167Z,37.80
2018-06-09T21:13:42.735Z,43.70
2018-06-09T21:16:10.316Z,52.43
2018-06-09T21:18:37.852Z,49.87
2018-06-09T21:21:05.441Z,39.60
2018-06-09T21:23:32.999Z,42.93
2018-06-09T21:26:00.579Z,34.13
2018-06-09T21:28:32.646Z,28.97
2018-06-09T21:31:16.844Z,23.93
2018-06-09T21:34:01.359Z,26.23
2018-06-09T21:36:34.370Z,20.33
2018-06-09T21:39:07.577Z,14.83
2018-06-09T21:41:40.713Z,12.70
2018-06-09T21:44:13.905Z,11.07
2018-06-09T21:46:46.997Z,11.73
2018-06-09T21:49:15.685Z,11.50
2018-06-09T21:51:43.256Z,20.40
2018-06-09T21:54:10.807Z,21.00
2018-06-09T21:56:38.285Z,11.70
2018-06-09T21:59:06.199Z,10.67
2018-06-09T22:01:34.177Z,9.47
2018-06-09T22:04:01.750Z,8.37
2018-06-09T22:06:29.309Z,10.43
2018-06-09T22:08:56.878Z,10.60
2018-06-09T22:11:24.468Z,11.77
2018-06-09T22:13:52.101Z,11.50
2018-06-09T22:16:19.600Z,10.53
2018-06-09T22:18:47.148Z,9.37
2018-06-09T22:21:14.660Z,9.30
2018-06-09T22:23:42.174Z,9.67
2018-06-09T22:26:15.208Z,10.17
2018-06-09T22:28:43.149Z,9.20
2018-06-09T22:31:10.674Z,8.57
2018-06-09T22:33:38.332Z,11.00
2018-06-09T22:36:05.915Z,9.77
2018-06-09T22:38:33.448Z,10.17
2018-06-09T22:41:00.987Z,10.30
2018-06-09T22:43:28.534Z,10.40
2018-06-09T22:45:56.038Z,11.67
2018-06-09T22:48:23.590Z,12.07
2018-06-09T22:50:51.161Z,12.60
2018-06-09T22:53:18.705Z,11.13
2018-06-09T22:55:46.462Z,11.17
2018-06-09T22:58:14.029Z,11.03
2018-06-09T23:00:47.328Z,11.53
2018-06-09T23:03:15.644Z,12.57
2018-06-09T23:05:43.289Z,12.80
2018-06-09T23:08:10.912Z,13.43
2018-06-09T23:10:38.492Z,10.97
2018-06-09T23:13:06.105Z,11.40
2018-06-09T23:15:33.630Z,11.10
2018-06-09T23:18:01.173Z,11.70
2018-06-09T23:20:28.704Z,11.20
2018-06-09T23:22:56.262Z,12.50
2018-06-09T23:25:23.819Z,11.50
2018-06-09T23:27:51.337Z,11.17
2018-06-09T23:30:18.880Z,11.73
2018-06-09T23:32:46.420Z,11.07
2018-06-09T23:35:14.637Z,10.83
2018-06-09T23:37:42.150Z,12.40
2018-06-09T23:40:09.688Z,12.20
2018-06-09T23:42:37.229Z,12.37
2018-06-09T23:45:04.751Z,12.10
2018-06-09T23:47:32.301Z,12.47
2018-06-09T23:49:59.866Z,13.00
2018-06-09T23:52:27.353Z,10.53
2018-06-09T23:54:54.887Z,11.57
2018-06-09T23:57:22.441Z,10.80
2018-06-09T23:59:49.980Z,10.97
